Time;durP1;ratioP1;P1;durP2;ratioP2;P2;SDS_P1;SDS_P2;PMS_P1;PMS_P2;Temp;Humidity;BMP_temperature;BMP_pressure;BME280_temperature;BME280_humidity;BME280_pressure;Samples;Min_cycle;Max_cycle;Signal;HPM_P1;HPM_P2
2022/03/25 00:01:02;;;;;;;7.43;6.87;;;;;;;;;;5025128;28;20206;-66
2022/03/25 00:03:49;;;;;;;7.90;7.27;;;;;;;;;;5018992;28;20217;-68
2022/03/25 00:06:36;;;;;;;7.80;6.80;;;;;;;;;;5026169;28;20735;-66
2022/03/25 00:09:23;;;;;;;7.50;6.60;;;;;;;;;;5020064;28;20748;-67
2022/03/25 00:12:10;;;;;;;7.30;6.77;;;;;;;;;;5022703;28;20312;-66
2022/03/25 00:14:57;;;;;;;7.17;6.57;;;;;;;;;;5015770;28;20228;-67
2022/03/25 00:17:45;;;;;;;7.27;6.67;;;;;;;;;;5026379;28;20292;-68
2022/03/25 00:20:32;;;;;;;7.63;7.10;;;;;;;;;;5023713;28;20203;-69
2022/03/25 00:23:19;;;;;;;8.00;7.20;;;;;;;;;;5023462;28;20241;-67
2022/03/25 00:26:06;;;;;;;7.63;7.03;;;;;;;;;;5025991;28;20218;-67
2022/03/25 00:28:53;;;;;;;8.03;7.33;;;;;;;;;;5016892;28;20298;-68
2022/03/25 00:31:40;;;;;;;7.40;6.90;;;;;;;;;;5024974;28;20238;-67
2022/03/25 00:34:28;;;;;;;7.93;7.13;;;;;;;;;;5021481;28;20292;-66
2022/03/25 00:37:15;;;;;;;7.87;7.17;;;;;;;;;;5020478;28;20291;-67
2022/03/25 00:40:02;;;;;;;7.90;7.20;;;;;;;;;;5023300;28;20229;-66
2022/03/25 00:42:49;;;;;;;7.47;6.87;;;;;;;;;;5022510;28;20240;-68
2022/03/25 00:45:36;;;;;;;8.33;7.53;;;;;;;;;;5023546;28;20261;-66
2022/03/25 00:48:23;;;;;;;7.60;7.00;;;;;;;;;;5019775;28;20866;-67
2022/03/25 00:51:11;;;;;;;7.87;7.17;;;;;;;;;;5025792;28;20804;-66
2022/03/25 00:53:59;;;;;;;7.67;7.07;;;;;;;;;;5022651;28;20316;-67
2022/03/25 00:56:46;;;;;;;7.87;7.17;;;;;;;;;;5025703;28;20206;-67
2022/03/25 00:59:33;;;;;;;7.63;7.03;;;;;;;;;;5020393;28;20241;-67
2022/03/25 01:02:20;;;;;;;8.20;7.40;;;;;;;;;;5022311;28;20297;-67
2022/03/25 01:05:08;;;;;;;7.63;7.03;;;;;;;;;;5025780;28;20206;-67
2022/03/25 01:07:56;;;;;;;8.00;7.30;;;;;;;;;;5017235;28;20235;-67
2022/03/25 01:10:44;;;;;;;8.60;7.70;;;;;;;;;;5020939;28;20733;-67
2022/03/25 01:13:33;;;;;;;8.70;7.90;;;;;;;;;;5021748;28;20242;-67
2022/03/25 01:16:21;;;;;;;7.90;7.30;;;;;;;;;;5022222;28;20626;-67
2022/03/25 01:19:08;;;;;;;7.87;7.20;;;;;;;;;;5024233;28;20670;-67
2022/03/25 01:21:55;;;;;;;7.87;7.20;;;;;;;;;;5022799;28;20205;-67
2022/03/25 01:24:44;;;;;;;7.93;7.23;;;;;;;;;;5016520;28;20212;-67
2022/03/25 01:27:30;;;;;;;7.93;7.33;;;;;;;;;;5020127;28;20288;-67
2022/03/25 01:30:19;;;;;;;7.90;7.30;;;;;;;;;;5022819;28;20289;-68
2022/03/25 01:33:06;;;;;;;7.90;7.27;;;;;;;;;;5020143;28;20548;-68
2022/03/25 01:35:53;;;;;;;7.77;7.07;;;;;;;;;;5021963;28;20212;-67
2022/03/25 01:38:40;;;;;;;7.80;7.20;;;;;;;;;;5024436;28;20338;-67
2022/03/25 01:41:28;;;;;;;7.80;7.20;;;;;;;;;;5021070;28;20258;-67
2022/03/25 01:44:16;;;;;;;7.50;7.00;;;;;;;;;;5019692;28;20577;-67
2022/03/25 01:47:03;;;;;;;7.90;7.37;;;;;;;;;;5022816;28;20699;-67
2022/03/25 01:49:50;;;;;;;7.77;7.17;;;;;;;;;;5025332;28;20209;-67
2022/03/25 01:52:37;;;;;;;8.43;7.73;;;;;;;;;;5029152;28;20358;-67
2022/03/25 01:55:26;;;;;;;7.90;7.30;;;;;;;;;;5025582;28;20601;-67
2022/03/25 01:58:15;;;;;;;7.70;6.97;;;;;;;;;;5027339;28;20753;-67
2022/03/25 02:01:04;;;;;;;7.83;7.23;;;;;;;;;;5023708;28;20312;-72
2022/03/25 02:03:51;;;;;;;7.23;6.73;;;;;;;;;;5022951;28;20296;-72
2022/03/25 02:06:37;;;;;;;8.17;7.57;;;;;;;;;;5021372;28;20295;-73
2022/03/25 02:09:26;;;;;;;7.93;7.33;;;;;;;;;;5026869;28;20298;-72
2022/03/25 02:12:13;;;;;;;7.90;7.20;;;;;;;;;;5024574;28;20269;-72
2022/03/25 02:15:01;;;;;;;7.87;7.17;;;;;;;;;;5025362;28;20263;-72
2022/03/25 02:17:48;;;;;;;7.60;7.00;;;;;;;;;;5026594;28;20280;-71
2022/03/25 02:20:37;;;;;;;7.83;7.23;;;;;;;;;;5025213;28;20198;-71
2022/03/25 02:23:25;;;;;;;8.17;7.40;;;;;;;;;;5024928;28;20750;-72
2022/03/25 02:26:12;;;;;;;7.90;7.20;;;;;;;;;;5023512;28;20262;-72
2022/03/25 02:29:00;;;;;;;8.03;7.27;;;;;;;;;;5022758;28;20342;-72
2022/03/25 02:31:47;;;;;;;7.70;7.13;;;;;;;;;;5023603;28;20231;-71
2022/03/25 02:34:34;;;;;;;8.50;7.73;;;;;;;;;;5024089;28;20730;-74
2022/03/25 02:37:21;;;;;;;7.87;7.17;;;;;;;;;;5024000;28;20578;-72
2022/03/25 02:40:11;;;;;;;7.37;6.87;;;;;;;;;;5026215;28;20221;-71
2022/03/25 02:42:58;;;;;;;8.13;7.43;;;;;;;;;;5026143;28;20209;-72
2022/03/25 02:45:45;;;;;;;7.90;7.30;;;;;;;;;;5021219;28;20317;-72
2022/03/25 02:48:32;;;;;;;8.03;7.40;;;;;;;;;;5026454;28;20692;-72
2022/03/25 02:51:19;;;;;;;8.57;7.87;;;;;;;;;;5027355;28;20317;-72
2022/03/25 02:54:06;;;;;;;7.97;7.27;;;;;;;;;;5024155;28;20282;-72
2022/03/25 02:56:55;;;;;;;8.13;7.33;;;;;;;;;;5022275;28;20223;-72
2022/03/25 02:59:42;;;;;;;7.20;6.70;;;;;;;;;;5026676;28;20300;-72
2022/03/25 03:02:29;;;;;;;7.97;7.40;;;;;;;;;;5026305;28;20206;-72
2022/03/25 03:05:17;;;;;;;8.13;7.43;;;;;;;;;;5026486;28;20294;-72
2022/03/25 03:08:06;;;;;;;7.63;7.03;;;;;;;;;;5023211;28;20873;-72
2022/03/25 03:10:53;;;;;;;7.67;6.97;;;;;;;;;;5023981;28;20229;-72
2022/03/25 03:13:41;;;;;;;7.80;7.20;;;;;;;;;;5025248;28;20610;-73
2022/03/25 03:16:28;;;;;;;8.17;7.47;;;;;;;;;;5027433;28;20214;-72
2022/03/25 03:19:15;;;;;;;7.33;6.73;;;;;;;;;;5020585;28;20201;-72
2022/03/25 03:22:02;;;;;;;8.00;7.23;;;;;;;;;;5023841;28;20696;-72
2022/03/25 03:24:49;;;;;;;7.93;7.23;;;;;;;;;;5026105;28;20602;-71
2022/03/25 03:27:36;;;;;;;7.47;6.90;;;;;;;;;;5025632;28;20250;-72
2022/03/25 03:30:24;;;;;;;7.40;6.90;;;;;;;;;;5025716;28;20253;-72
2022/03/25 03:33:11;;;;;;;7.20;6.67;;;;;;;;;;5022207;28;20705;-72
2022/03/25 03:35:58;;;;;;;7.37;6.77;;;;;;;;;;5025925;28;20263;-71
2022/03/25 03:38:45;;;;;;;7.60;7.00;;;;;;;;;;5023884;28;20213;-71
2022/03/25 03:41:32;;;;;;;8.07;7.47;;;;;;;;;;5024609;28;20263;-72
2022/03/25 03:44:19;;;;;;;7.60;7.10;;;;;;;;;;5023359;28;20211;-72
2022/03/25 03:47:09;;;;;;;7.77;7.17;;;;;;;;;;5026672;28;20222;-75
2022/03/25 03:49:56;;;;;;;7.63;6.93;;;;;;;;;;5025801;28;20264;-72
2022/03/25 03:52:44;;;;;;;7.90;7.30;;;;;;;;;;5024207;28;20646;-72
2022/03/25 03:55:31;;;;;;;7.83;7.23;;;;;;;;;;5023567;28;20282;-72
2022/03/25 03:58:18;;;;;;;7.90;7.30;;;;;;;;;;5026965;28;20252;-72
2022/03/25 04:01:05;;;;;;;7.70;7.10;;;;;;;;;;5025054;28;20715;-72
2022/03/25 04:03:53;;;;;;;7.40;6.80;;;;;;;;;;5024789;28;20205;-72
2022/03/25 04:06:40;;;;;;;7.47;6.97;;;;;;;;;;5023144;28;20215;-72
2022/03/25 04:09:27;;;;;;;7.43;6.83;;;;;;;;;;5020507;28;20242;-71
2022/03/25 04:12:14;;;;;;;7.67;7.07;;;;;;;;;;5018497;28;20717;-71
2022/03/25 04:15:01;;;;;;;7.83;7.20;;;;;;;;;;5018600;28;20675;-72
2022/03/25 04:17:48;;;;;;;8.30;7.60;;;;;;;;;;5023159;28;20292;-71
2022/03/25 04:20:36;;;;;;;7.73;7.13;;;;;;;;;;5018532;28;20276;-72
2022/03/25 04:23:23;;;;;;;7.57;6.93;;;;;;;;;;5022429;28;20211;-71
2022/03/25 04:26:10;;;;;;;7.73;7.13;;;;;;;;;;5022619;28;20301;-72
2022/03/25 04:28:57;;;;;;;7.53;7.03;;;;;;;;;;5026510;28;20289;-72
2022/03/25 04:31:44;;;;;;;7.20;6.73;;;;;;;;;;5023008;28;20275;-72
2022/03/25 04:34:31;;;;;;;7.90;7.30;;;;;;;;;;5023046;28;20268;-72
2022/03/25 04:37:19;;;;;;;8.03;7.33;;;;;;;;;;5021649;28;20269;-72
2022/03/25 04:40:07;;;;;;;7.87;7.27;;;;;;;;;;5023089;28;20337;-72
2022/03/25 04:42:56;;;;;;;8.53;7.83;;;;;;;;;;5024493;28;20209;-72
2022/03/25 04:45:43;;;;;;;8.20;7.60;;;;;;;;;;5019421;28;20271;-72
2022/03/25 04:48:30;;;;;;;7.70;7.10;;;;;;;;;;5020831;28;20267;-71
2022/03/25 04:51:18;;;;;;;7.60;7.00;;;;;;;;;;5021178;28;20556;-72
2022/03/25 04:54:07;;;;;;;8.67;7.90;;;;;;;;;;5017801;28;20214;-71
2022/03/25 04:56:54;;;;;;;8.10;7.50;;;;;;;;;;5026674;28;20206;-72
2022/03/25 04:59:41;;;;;;;8.53;7.73;;;;;;;;;;5019480;28;20297;-72
2022/03/25 05:02:28;;;;;;;8.23;7.53;;;;;;;;;;5022618;28;20203;-73
2022/03/25 05:05:15;;;;;;;9.20;7.50;;;;;;;;;;5021547;28;20670;-71
2022/03/25 05:08:02;;;;;;;7.90;7.27;;;;;;;;;;5020368;28;20293;-72
2022/03/25 05:10:51;;;;;;;8.63;7.90;;;;;;;;;;5023423;28;20559;-71
2022/03/25 05:13:38;;;;;;;8.40;7.70;;;;;;;;;;5021637;28;20230;-72
2022/03/25 05:16:25;;;;;;;8.80;8.00;;;;;;;;;;5026568;28;20850;-72
2022/03/25 05:19:12;;;;;;;8.73;8.03;;;;;;;;;;5022231;28;20217;-71
2022/03/25 05:21:59;;;;;;;8.90;8.10;;;;;;;;;;5018817;28;20350;-72
2022/03/25 05:24:46;;;;;;;8.50;7.70;;;;;;;;;;5019831;28;20291;-72
2022/03/25 05:27:43;;;;;;;8.57;7.87;;;;;;;;;;5016967;28;20256;-72
2022/03/25 05:30:32;;;;;;;8.93;8.13;;;;;;;;;;5020252;28;20211;-72
2022/03/25 05:33:19;;;;;;;9.03;8.13;;;;;;;;;;5021810;28;20234;-72
2022/03/25 05:36:06;;;;;;;9.47;8.67;;;;;;;;;;5021453;28;20765;-72
2022/03/25 05:38:55;;;;;;;10.10;9.10;;;;;;;;;;5023723;28;20217;-72
2022/03/25 05:41:42;;;;;;;9.83;8.93;;;;;;;;;;5024447;28;20210;-72
2022/03/25 05:44:31;;;;;;;10.57;9.57;;;;;;;;;;5020320;28;20250;-78
2022/03/25 05:47:18;;;;;;;10.07;9.17;;;;;;;;;;5023011;28;20211;-72
2022/03/25 05:50:07;;;;;;;10.87;9.53;;;;;;;;;;5027888;28;20217;-72
2022/03/25 05:52:54;;;;;;;11.63;9.77;;;;;;;;;;5022933;28;20241;-71
2022/03/25 05:55:41;;;;;;;11.73;9.90;;;;;;;;;;5023910;28;20350;-72
2022/03/25 05:58:27;;;;;;;11.67;10.33;;;;;;;;;;5019926;28;20211;-71
2022/03/25 06:01:16;;;;;;;11.50;10.30;;;;;;;;;;5020019;28;20682;-72
2022/03/25 06:04:03;;;;;;;11.83;10.63;;;;;;;;;;5022888;28;20693;-71
2022/03/25 06:06:51;;;;;;;12.20;10.13;;;;;;;;;;5019815;28;20287;-71
2022/03/25 06:09:37;;;;;;;11.47;10.37;;;;;;;;;;5026096;28;20273;-72
2022/03/25 06:12:24;;;;;;;11.50;10.30;;;;;;;;;;5016970;28;20259;-71
2022/03/25 06:15:11;;;;;;;11.87;10.67;;;;;;;;;;5022946;28;20270;-72
2022/03/25 06:18:00;;;;;;;12.03;10.83;;;;;;;;;;5023192;28;20223;-72
2022/03/25 06:20:47;;;;;;;13.23;11.20;;;;;;;;;;5020069;28;20236;-72
2022/03/25 06:23:33;;;;;;;11.80;10.60;;;;;;;;;;5017469;28;20294;-72
2022/03/25 06:26:21;;;;;;;13.37;11.10;;;;;;;;;;5022900;28;20799;-72
2022/03/25 06:29:09;;;;;;;12.10;10.90;;;;;;;;;;5022710;28;20311;-72
2022/03/25 06:31:56;;;;;;;11.90;10.90;;;;;;;;;;5022929;28;20222;-72
2022/03/25 06:34:44;;;;;;;11.20;10.10;;;;;;;;;;5023116;28;20346;-71
2022/03/25 06:37:31;;;;;;;11.77;10.57;;;;;;;;;;5024055;28;20202;-72
2022/03/25 06:40:19;;;;;;;11.23;10.23;;;;;;;;;;5022954;28;20347;-71
2022/03/25 06:43:06;;;;;;;10.50;9.60;;;;;;;;;;5023007;28;20223;-71
2022/03/25 06:45:53;;;;;;;11.40;10.37;;;;;;;;;;5026032;28;20257;-72
2022/03/25 06:48:40;;;;;;;11.27;10.17;;;;;;;;;;5024753;28;20278;-71
2022/03/25 06:51:29;;;;;;;10.97;10.07;;;;;;;;;;5025310;28;20228;-73
2022/03/25 06:54:17;;;;;;;11.27;10.27;;;;;;;;;;5026255;28;20322;-71
2022/03/25 06:57:04;;;;;;;11.10;10.20;;;;;;;;;;5023272;28;20711;-71
2022/03/25 06:59:52;;;;;;;10.33;9.50;;;;;;;;;;5023410;28;20645;-71
2022/03/25 07:02:40;;;;;;;10.80;9.90;;;;;;;;;;5027744;28;20252;-71
2022/03/25 07:05:30;;;;;;;10.10;9.30;;;;;;;;;;5025925;28;20209;-72
2022/03/25 07:08:22;;;;;;;10.30;9.30;;;;;;;;;;5023290;28;20318;-71
2022/03/25 07:11:09;;;;;;;9.67;8.97;;;;;;;;;;5022600;28;20212;-72
2022/03/25 07:13:56;;;;;;;9.67;8.97;;;;;;;;;;5019389;28;20277;-72
2022/03/25 07:16:43;;;;;;;9.87;9.07;;;;;;;;;;5023550;28;20405;-71
2022/03/25 07:19:31;;;;;;;9.33;8.60;;;;;;;;;;5024410;28;20320;-72
2022/03/25 07:22:18;;;;;;;9.83;9.13;;;;;;;;;;5025110;28;20672;-72
2022/03/25 07:25:07;;;;;;;9.53;8.73;;;;;;;;;;5023342;28;20583;-72
2022/03/25 07:27:54;;;;;;;9.23;8.53;;;;;;;;;;5023407;28;20202;-71
2022/03/25 07:30:41;;;;;;;9.30;8.60;;;;;;;;;;5021508;28;20648;-72
2022/03/25 07:33:28;;;;;;;9.13;8.30;;;;;;;;;;5025154;28;20736;-71
2022/03/25 07:36:15;;;;;;;9.20;8.50;;;;;;;;;;5020223;28;20245;-72
2022/03/25 07:39:02;;;;;;;8.60;7.80;;;;;;;;;;5024575;28;20574;-72
2022/03/25 07:41:50;;;;;;;9.43;8.73;;;;;;;;;;5024309;28;20279;-71
2022/03/25 07:44:39;;;;;;;8.77;8.10;;;;;;;;;;5023910;28;20276;-72
2022/03/25 07:47:25;;;;;;;8.70;8.10;;;;;;;;;;5023739;28;20705;-72
2022/03/25 07:50:14;;;;;;;8.63;8.00;;;;;;;;;;5023294;28;20658;-71
2022/03/25 07:53:01;;;;;;;8.77;8.13;;;;;;;;;;5019416;28;20776;-72
2022/03/25 07:55:50;;;;;;;8.90;8.20;;;;;;;;;;5025314;28;20335;-72
2022/03/25 07:58:39;;;;;;;8.70;8.10;;;;;;;;;;5020086;28;20221;-72
2022/03/25 08:01:26;;;;;;;8.10;7.50;;;;;;;;;;5023072;28;20277;-72
2022/03/25 08:04:13;;;;;;;8.13;7.53;;;;;;;;;;5021143;28;20523;-72
2022/03/25 08:07:00;;;;;;;8.67;7.97;;;;;;;;;;5020769;28;20216;-71
2022/03/25 08:09:47;;;;;;;8.40;7.80;;;;;;;;;;5020592;28;20229;-71
2022/03/25 08:12:35;;;;;;;8.13;7.53;;;;;;;;;;5023402;28;20794;-71
2022/03/25 08:15:24;;;;;;;8.07;7.47;;;;;;;;;;5019428;28;20199;-71
2022/03/25 08:18:13;;;;;;;7.80;7.30;;;;;;;;;;5021059;28;20244;-71
2022/03/25 08:21:00;;;;;;;7.57;7.07;;;;;;;;;;5021351;28;20211;-72
2022/03/25 08:29:56;;;;;;;6.90;6.37;;;;;;;;;;5021309;28;20290;-72
2022/03/25 08:32:44;;;;;;;7.87;7.27;;;;;;;;;;5026042;28;20229;-72
2022/03/25 08:35:32;;;;;;;7.80;7.30;;;;;;;;;;5022583;28;20736;-75
2022/03/25 08:38:19;;;;;;;7.40;6.90;;;;;;;;;;5022352;28;20684;-72
2022/03/25 08:41:06;;;;;;;7.40;6.90;;;;;;;;;;5022151;28;21154;-72
2022/03/25 08:43:52;;;;;;;6.90;6.40;;;;;;;;;;5019617;28;20661;-71
2022/03/25 08:46:40;;;;;;;6.70;6.27;;;;;;;;;;5024460;28;20236;-71
2022/03/25 08:49:31;;;;;;;6.93;6.43;;;;;;;;;;5020882;28;20670;-71
2022/03/25 08:52:20;;;;;;;6.93;6.50;;;;;;;;;;5020042;28;20313;-72
2022/03/25 08:55:09;;;;;;;6.60;6.20;;;;;;;;;;5023089;28;20218;-72
2022/03/25 08:57:57;;;;;;;7.27;6.77;;;;;;;;;;5022515;28;20206;-72
2022/03/25 09:00:43;;;;;;;7.20;6.70;;;;;;;;;;5021506;28;20211;-72
2022/03/25 09:03:30;;;;;;;6.87;6.47;;;;;;;;;;5026979;28;20208;-72
2022/03/25 09:06:20;;;;;;;6.73;6.33;;;;;;;;;;5016766;28;20214;-72
2022/03/25 09:09:06;;;;;;;6.23;5.83;;;;;;;;;;5016451;28;20295;-72
2022/03/25 09:11:54;;;;;;;6.40;5.90;;;;;;;;;;5020028;28;20583;-72
2022/03/25 09:14:41;;;;;;;6.90;6.50;;;;;;;;;;5023726;28;20266;-72
2022/03/25 09:17:28;;;;;;;6.73;6.33;;;;;;;;;;5019443;28;20209;-72
2022/03/25 09:20:15;;;;;;;7.73;7.13;;;;;;;;;;5021412;28;20201;-76
2022/03/25 09:23:03;;;;;;;7.30;6.80;;;;;;;;;;5019195;28;20248;-71
2022/03/25 09:25:50;;;;;;;6.90;6.40;;;;;;;;;;5024221;28;20264;-71
2022/03/25 09:28:37;;;;;;;7.40;6.90;;;;;;;;;;5020803;28;20220;-72
2022/03/25 09:31:24;;;;;;;7.10;6.60;;;;;;;;;;5020976;28;20215;-71
2022/03/25 09:37:16;;;;;;;7.27;6.70;;;;;;;;;;5022147;28;20215;-71
2022/03/25 09:40:08;;;;;;;7.27;6.67;;;;;;;;;;5017928;28;20253;-72
2022/03/25 09:42:57;;;;;;;7.87;7.27;;;;;;;;;;5020714;28;20216;-71
2022/03/25 09:45:44;;;;;;;7.80;7.20;;;;;;;;;;5022266;28;20286;-72
2022/03/25 09:48:31;;;;;;;8.30;7.70;;;;;;;;;;5020647;28;20623;-72
2022/03/25 09:51:18;;;;;;;8.33;7.73;;;;;;;;;;5016112;28;20626;-71
2022/03/25 09:54:06;;;;;;;7.70;7.20;;;;;;;;;;5026493;28;20381;-72
2022/03/25 09:56:55;;;;;;;8.00;7.40;;;;;;;;;;5022685;28;20288;-72
2022/03/25 09:59:42;;;;;;;8.27;7.67;;;;;;;;;;5019426;28;20605;-72
2022/03/25 10:02:29;;;;;;;8.77;8.03;;;;;;;;;;5018738;28;20204;-72
2022/03/25 10:05:17;;;;;;;8.17;7.37;;;;;;;;;;5026312;28;20254;-72
2022/03/25 10:08:04;;;;;;;7.80;7.20;;;;;;;;;;5019772;28;20212;-72
2022/03/25 10:10:51;;;;;;;7.97;7.37;;;;;;;;;;5024832;28;20251;-72
2022/03/25 10:13:40;;;;;;;7.90;7.30;;;;;;;;;;5019281;28;20271;-72
2022/03/25 10:16:28;;;;;;;8.47;7.80;;;;;;;;;;5026886;28;20213;-71
2022/03/25 10:19:17;;;;;;;8.67;7.97;;;;;;;;;;5022976;28;20282;-74
2022/03/25 10:22:06;;;;;;;7.80;7.20;;;;;;;;;;5021802;28;20210;-72
2022/03/25 10:24:53;;;;;;;7.77;7.17;;;;;;;;;;5023026;28;20223;-72
2022/03/25 10:27:41;;;;;;;8.37;7.60;;;;;;;;;;5023380;28;20205;-72
2022/03/25 10:30:38;;;;;;;7.83;7.23;;;;;;;;;;5022367;28;20330;-72
2022/03/25 10:33:28;;;;;;;7.50;6.90;;;;;;;;;;5024676;28;20249;-71
2022/03/25 10:36:17;;;;;;;7.70;7.00;;;;;;;;;;5028733;28;20212;-72
2022/03/25 10:39:06;;;;;;;7.27;6.77;;;;;;;;;;5025717;28;20210;-72
2022/03/25 10:41:58;;;;;;;7.53;6.93;;;;;;;;;;5021339;28;20241;-72
2022/03/25 10:44:45;;;;;;;7.07;6.47;;;;;;;;;;5027650;28;20248;-72
2022/03/25 10:47:34;;;;;;;6.90;6.40;;;;;;;;;;5021598;28;20210;-72
2022/03/25 10:50:22;;;;;;;7.00;6.40;;;;;;;;;;5025641;28;20200;-72
2022/03/25 10:53:12;;;;;;;7.20;6.60;;;;;;;;;;5024197;28;21002;-72
2022/03/25 10:56:00;;;;;;;7.07;6.47;;;;;;;;;;5022814;28;20212;-72
2022/03/25 10:58:52;;;;;;;6.67;6.07;;;;;;;;;;5022002;28;20246;-72
2022/03/25 11:01:39;;;;;;;6.77;6.17;;;;;;;;;;5024592;28;20201;-72
2022/03/25 11:04:28;;;;;;;6.17;5.67;;;;;;;;;;5023542;28;20691;-72
2022/03/25 11:07:16;;;;;;;6.40;5.90;;;;;;;;;;5029604;28;20277;-72
2022/03/25 11:10:03;;;;;;;6.33;5.83;;;;;;;;;;5022742;28;20207;-72
2022/03/25 11:12:52;;;;;;;6.33;5.83;;;;;;;;;;5026977;28;20301;-71
2022/03/25 11:15:39;;;;;;;6.57;6.17;;;;;;;;;;5024245;28;20211;-72
2022/03/25 11:18:28;;;;;;;6.07;5.67;;;;;;;;;;5029811;28;20245;-71
2022/03/25 11:21:17;;;;;;;6.30;5.77;;;;;;;;;;5020181;28;20212;-72
2022/03/25 11:24:06;;;;;;;6.67;6.07;;;;;;;;;;5023413;28;20207;-71
2022/03/25 11:26:54;;;;;;;6.43;6.00;;;;;;;;;;5025040;28;20234;-71
2022/03/25 11:29:46;;;;;;;6.10;5.70;;;;;;;;;;5021485;28;20223;-71
2022/03/25 11:32:33;;;;;;;5.93;5.43;;;;;;;;;;5023606;28;20214;-72
2022/03/25 11:35:21;;;;;;;6.33;5.80;;;;;;;;;;5023223;28;20273;-71
2022/03/25 11:38:22;;;;;;;5.90;5.50;;;;;;;;;;5022197;28;20375;-72
2022/03/25 11:41:23;;;;;;;5.97;5.47;;;;;;;;;;5024887;28;20255;-72
2022/03/25 11:44:23;;;;;;;5.83;5.40;;;;;;;;;;5022812;28;20288;-72
2022/03/25 11:47:19;;;;;;;5.10;4.77;;;;;;;;;;5024929;28;20204;-72
2022/03/25 11:50:25;;;;;;;5.40;5.00;;;;;;;;;;5024050;28;20266;-72
2022/03/25 11:53:33;;;;;;;5.90;5.30;;;;;;;;;;5019223;28;20288;-72
2022/03/25 11:56:20;;;;;;;5.80;5.23;;;;;;;;;;5024437;28;20301;-72
2022/03/25 11:59:08;;;;;;;5.30;4.80;;;;;;;;;;5017841;28;20212;-72
2022/03/25 12:02:22;;;;;;;5.77;5.27;;;;;;;;;;5020645;28;20706;-73
2022/03/25 12:05:38;;;;;;;5.30;4.87;;;;;;;;;;5021377;28;20214;-72
2022/03/25 12:08:27;;;;;;;4.70;4.40;;;;;;;;;;5021518;28;20207;-72
2022/03/25 12:11:16;;;;;;;5.23;4.83;;;;;;;;;;5022691;28;20215;-72
2022/03/25 12:14:07;;;;;;;5.30;4.90;;;;;;;;;;5021262;28;20287;-72
2022/03/25 12:17:03;;;;;;;5.03;4.50;;;;;;;;;;5020050;28;20577;-72
2022/03/25 12:19:53;;;;;;;4.90;4.50;;;;;;;;;;5023041;28;20215;-72
2022/03/25 12:22:42;;;;;;;4.63;4.33;;;;;;;;;;5021529;28;20217;-72
2022/03/25 12:25:29;;;;;;;4.37;4.07;;;;;;;;;;5024120;28;20231;-71
2022/03/25 12:28:24;;;;;;;4.20;3.90;;;;;;;;;;5024896;28;20207;-71
2022/03/25 12:31:11;;;;;;;4.73;4.33;;;;;;;;;;5024367;28;20313;-72
2022/03/25 12:34:00;;;;;;;4.20;3.90;;;;;;;;;;5021927;28;20322;-74
2022/03/25 12:36:53;;;;;;;4.43;4.03;;;;;;;;;;5023801;28;20212;-70
2022/03/25 12:39:40;;;;;;;4.53;4.10;;;;;;;;;;5019250;28;20238;-71
2022/03/25 12:42:28;;;;;;;3.93;3.67;;;;;;;;;;5019863;28;20290;-71
2022/03/25 12:45:17;;;;;;;4.13;3.83;;;;;;;;;;5025882;28;20247;-72
2022/03/25 12:48:12;;;;;;;4.70;4.30;;;;;;;;;;5024038;28;20273;-72
2022/03/25 12:51:05;;;;;;;4.60;4.30;;;;;;;;;;5022050;28;20199;-72
2022/03/25 12:53:52;;;;;;;4.83;4.43;;;;;;;;;;5021981;28;20231;-71
2022/03/25 12:56:39;;;;;;;4.43;4.13;;;;;;;;;;5019695;28;20588;-72
2022/03/25 12:59:29;;;;;;;4.57;3.90;;;;;;;;;;5025673;28;20665;-79
2022/03/25 13:02:19;;;;;;;4.10;3.80;;;;;;;;;;5019539;28;20211;-72
2022/03/25 13:05:12;;;;;;;4.20;3.90;;;;;;;;;;5024781;28;20371;-71
2022/03/25 13:07:59;;;;;;;3.73;3.43;;;;;;;;;;5022349;28;20353;-72
2022/03/25 13:10:46;;;;;;;3.93;3.50;;;;;;;;;;5023762;28;20639;-72
2022/03/25 13:13:38;;;;;;;3.97;3.67;;;;;;;;;;5021091;28;20705;-72
2022/03/25 13:16:25;;;;;;;3.73;3.43;;;;;;;;;;5025559;28;20216;-73
2022/03/25 13:19:13;;;;;;;3.70;3.40;;;;;;;;;;5023531;28;20265;-73
2022/03/25 13:22:19;;;;;;;3.50;3.23;;;;;;;;;;5023161;28;20241;-73
2022/03/25 13:25:07;;;;;;;3.60;3.40;;;;;;;;;;5022748;28;20260;-72
2022/03/25 13:27:55;;;;;;;3.60;3.30;;;;;;;;;;5020933;28;20214;-72
2022/03/25 13:30:44;;;;;;;3.40;3.13;;;;;;;;;;5021318;28;20271;-72
2022/03/25 13:33:46;;;;;;;3.07;2.97;;;;;;;;;;5022494;28;20420;-72
2022/03/25 13:36:35;;;;;;;3.70;3.40;;;;;;;;;;5022992;28;20681;-73
2022/03/25 13:39:22;;;;;;;3.20;3.00;;;;;;;;;;5020614;28;20206;-72
2022/03/25 13:42:13;;;;;;;3.47;3.07;;;;;;;;;;5022814;28;20662;-72
2022/03/25 13:45:08;;;;;;;3.27;2.97;;;;;;;;;;5022515;28;20310;-73
2022/03/25 13:48:12;;;;;;;2.80;2.60;;;;;;;;;;5025904;28;21285;-72
2022/03/25 13:50:59;;;;;;;3.03;2.83;;;;;;;;;;5031528;28;20209;-72
2022/03/25 13:53:49;;;;;;;2.80;2.60;;;;;;;;;;5019649;28;20394;-72
2022/03/25 13:56:37;;;;;;;2.90;2.70;;;;;;;;;;5025477;28;20209;-72
2022/03/25 13:59:27;;;;;;;3.17;2.97;;;;;;;;;;5026437;28;20214;-73
2022/03/25 14:02:21;;;;;;;3.20;2.90;;;;;;;;;;5025251;28;20225;-72
2022/03/25 14:05:21;;;;;;;3.10;2.90;;;;;;;;;;5026216;28;20249;-72
2022/03/25 14:08:10;;;;;;;2.80;2.60;;;;;;;;;;5024044;28;20580;-72
2022/03/25 14:10:59;;;;;;;2.90;2.70;;;;;;;;;;5024033;28;20573;-72
2022/03/25 14:13:57;;;;;;;2.40;2.30;;;;;;;;;;5022278;28;20225;-71
2022/03/25 14:16:53;;;;;;;2.60;2.43;;;;;;;;;;5024710;28;20220;-77
2022/03/25 14:19:41;;;;;;;2.60;2.40;;;;;;;;;;5024981;28;21005;-73
2022/03/25 14:22:28;;;;;;;2.47;2.27;;;;;;;;;;5027838;28;20244;-72
2022/03/25 14:25:17;;;;;;;2.60;2.40;;;;;;;;;;5026330;28;20558;-72
2022/03/25 14:28:10;;;;;;;2.47;2.30;;;;;;;;;;5026121;28;20292;-73
2022/03/25 14:31:03;;;;;;;2.53;2.33;;;;;;;;;;5026365;28;20748;-74
2022/03/25 14:33:50;;;;;;;2.93;2.17;;;;;;;;;;5026126;28;20208;-72
2022/03/25 14:36:37;;;;;;;2.77;2.40;;;;;;;;;;5026196;28;20735;-74
2022/03/25 14:39:24;;;;;;;2.40;2.20;;;;;;;;;;5026915;28;20657;-72
2022/03/25 14:42:11;;;;;;;2.73;2.53;;;;;;;;;;5025488;28;20212;-72
2022/03/25 14:44:59;;;;;;;2.20;2.10;;;;;;;;;;5025359;28;20264;-72
2022/03/25 14:47:46;;;;;;;2.33;2.13;;;;;;;;;;5019537;28;20728;-72
2022/03/25 14:50:33;;;;;;;2.70;2.10;;;;;;;;;;5025914;28;20266;-72
2022/03/25 14:53:20;;;;;;;2.50;2.30;;;;;;;;;;5027732;28;20322;-73
2022/03/25 14:56:07;;;;;;;3.47;2.53;;;;;;;;;;5024626;28;20286;-71
2022/03/25 14:58:54;;;;;;;2.40;2.30;;;;;;;;;;5021110;28;20258;-72
2022/03/25 15:01:43;;;;;;;2.43;2.23;;;;;;;;;;5025960;28;20225;-72
2022/03/25 15:04:30;;;;;;;2.10;2.00;;;;;;;;;;5025326;28;20681;-72
2022/03/25 15:07:17;;;;;;;3.33;2.17;;;;;;;;;;5025928;28;20200;-73
2022/03/25 15:10:05;;;;;;;4.33;2.40;;;;;;;;;;5023041;28;20318;-72
2022/03/25 15:12:52;;;;;;;2.33;2.23;;;;;;;;;;5024300;28;20797;-71
2022/03/25 15:15:42;;;;;;;2.13;1.90;;;;;;;;;;5020886;28;20309;-72
2022/03/25 15:18:30;;;;;;;2.10;2.00;;;;;;;;;;5023598;28;20221;-72
2022/03/25 15:21:18;;;;;;;2.00;1.80;;;;;;;;;;5021493;28;20248;-71
2022/03/25 15:24:07;;;;;;;2.00;1.90;;;;;;;;;;5026045;28;20257;-72
2022/03/25 15:26:54;;;;;;;1.93;1.83;;;;;;;;;;5025701;28;20698;-72
2022/03/25 15:35:51;;;;;;;2.70;1.83;;;;;;;;;;5024228;28;20231;-72
2022/03/25 15:38:38;;;;;;;1.90;1.73;;;;;;;;;;5024456;28;20216;-71
2022/03/25 15:41:25;;;;;;;1.80;1.67;;;;;;;;;;5027495;28;20266;-73
2022/03/25 15:44:12;;;;;;;3.43;1.77;;;;;;;;;;5023127;28;20555;-72
2022/03/25 15:46:59;;;;;;;1.57;1.47;;;;;;;;;;5019543;28;20209;-72
2022/03/25 15:49:46;;;;;;;1.87;1.77;;;;;;;;;;5024567;28;20360;-72
2022/03/25 15:52:35;;;;;;;1.40;1.30;;;;;;;;;;5024352;28;20224;-72
2022/03/25 15:55:22;;;;;;;2.77;2.00;;;;;;;;;;5020985;28;20341;-72
2022/03/25 15:58:09;;;;;;;1.90;1.80;;;;;;;;;;5024098;28;20208;-72
2022/03/25 16:00:59;;;;;;;1.60;1.50;;;;;;;;;;5017501;28;20212;-73
2022/03/25 16:03:46;;;;;;;1.73;1.63;;;;;;;;;;5025547;28;20623;-72
2022/03/25 16:06:33;;;;;;;1.93;1.83;;;;;;;;;;5020418;28;20574;-72
2022/03/25 16:09:22;;;;;;;1.90;1.80;;;;;;;;;;5022439;28;20211;-72
2022/03/25 16:12:10;;;;;;;1.60;1.50;;;;;;;;;;5022212;28;20291;-72
2022/03/25 16:14:56;;;;;;;1.97;1.50;;;;;;;;;;5019322;28;20405;-72
2022/03/25 16:17:43;;;;;;;1.27;1.20;;;;;;;;;;5021463;28;21024;-73
2022/03/25 16:20:30;;;;;;;1.13;1.03;;;;;;;;;;5020408;28;20215;-72
2022/03/25 16:23:18;;;;;;;1.47;1.40;;;;;;;;;;5023365;28;20332;-74
2022/03/25 16:26:08;;;;;;;1.73;1.63;;;;;;;;;;5021665;28;20209;-72
2022/03/25 16:28:54;;;;;;;1.47;1.30;;;;;;;;;;5021808;28;20797;-72
2022/03/25 16:31:43;;;;;;;1.70;1.60;;;;;;;;;;5024173;28;20297;-72
2022/03/25 16:34:30;;;;;;;1.63;1.50;;;;;;;;;;5023216;28;20203;-72
2022/03/25 16:37:18;;;;;;;1.70;1.60;;;;;;;;;;5023395;28;20219;-73
2022/03/25 16:40:08;;;;;;;1.50;1.40;;;;;;;;;;5022312;28;20211;-72
2022/03/25 16:42:56;;;;;;;1.77;1.40;;;;;;;;;;5022737;28;20216;-72
2022/03/25 16:45:44;;;;;;;1.70;1.60;;;;;;;;;;5025542;28;20340;-73
2022/03/25 16:48:32;;;;;;;1.67;1.40;;;;;;;;;;5024975;28;20333;-71
2022/03/25 16:51:19;;;;;;;1.47;1.20;;;;;;;;;;5018124;28;20211;-72
2022/03/25 16:54:06;;;;;;;1.70;1.60;;;;;;;;;;5024525;28;20258;-71
2022/03/25 16:56:54;;;;;;;1.53;1.43;;;;;;;;;;5023489;28;20381;-73
2022/03/25 16:59:42;;;;;;;2.30;1.30;;;;;;;;;;5018958;28;20248;-72
2022/03/25 17:02:29;;;;;;;1.27;1.17;;;;;;;;;;5020211;28;20235;-72